createdAt,value
2022-08-20T00:01:46.029Z,100272.19
2022-08-20T00:04:15.651Z,100276.50
2022-08-20T00:06:51.035Z,100279.81
2022-08-20T00:09:20.641Z,100293.38
2022-08-20T00:11:50.217Z,100286.13
2022-08-20T00:14:19.910Z,100294.25
2022-08-20T00:16:50.277Z,100291.31
2022-08-20T00:19:21.471Z,100296.44
2022-08-20T00:21:57.922Z,100295.97
2022-08-20T00:24:27.809Z,100300.06
2022-08-20T00:26:57.420Z,100302.78
2022-08-20T00:29:31.561Z,100308.19
2022-08-20T00:32:01.181Z,100302.25
2022-08-20T00:34:30.735Z,100301.75
2022-08-20T00:37:03.294Z,100302.03
2022-08-20T00:39:32.879Z,100304.25
2022-08-20T00:42:02.564Z,100302.41
2022-08-20T00:44:32.255Z,100309.03
2022-08-20T00:47:01.944Z,100305.38
2022-08-20T00:49:32.792Z,100309.84
2022-08-20T00:52:05.422Z,100310.41
2022-08-20T00:54:37.284Z,100307.22
2022-08-20T00:57:10.665Z,100312.34
2022-08-20T00:59:41.316Z,100309.19
2022-08-20T01:02:12.305Z,100306.75
2022-08-20T01:04:44.050Z,100312.25
2022-08-20T01:07:16.198Z,100309.53
2022-08-20T01:09:57.932Z,100303.94
2022-08-20T01:12:29.413Z,100307.31
2022-08-20T01:14:59.268Z,100310.59
2022-08-20T01:17:29.600Z,100309.19
2022-08-20T01:20:01.359Z,100313.38
2022-08-20T01:22:50.877Z,100319.31
2022-08-20T01:25:23.907Z,100309.88
2022-08-20T01:27:56.338Z,100318.50
2022-08-20T01:30:27.932Z,100317.38
2022-08-20T01:32:57.591Z,100299.63
2022-08-20T01:35:27.545Z,100301.50
2022-08-20T01:37:57.384Z,100316.88
2022-08-20T01:40:47.409Z,100318.56
2022-08-20T01:43:19.605Z,100320.97
2022-08-20T01:45:51.662Z,100322.16
2022-08-20T01:48:22.147Z,100326.03
2022-08-20T01:50:56.196Z,100329.53
2022-08-20T01:53:29.630Z,100324.94
2022-08-20T01:55:59.195Z,100318.75
2022-08-20T01:58:31.452Z,100322.34
2022-08-20T02:01:01.338Z,100310.44
2022-08-20T02:03:36.583Z,100320.44
2022-08-20T02:06:08.207Z,100321.53
2022-08-20T02:08:37.803Z,100320.16
2022-08-20T02:11:08.032Z,100321.28
2022-08-20T02:13:40.978Z,100328.66
2022-08-20T02:16:10.806Z,100316.81
2022-08-20T02:18:40.433Z,100316.75
2022-08-20T02:21:10.019Z,100324.28
2022-08-20T02:23:39.612Z,100327.50
2022-08-20T02:26:09.845Z,100335.38
2022-08-20T02:28:42.046Z,100343.50
2022-08-20T02:31:11.925Z,100344.97
2022-08-20T02:33:41.509Z,100346.09
2022-08-20T02:36:31.070Z,100352.44
2022-08-20T02:39:00.687Z,100361.06
2022-08-20T02:41:30.339Z,100354.63
2022-08-20T02:44:02.539Z,100352.38
2022-08-20T02:46:32.113Z,100348.56
2022-08-20T02:49:01.719Z,100355.06
2022-08-20T02:51:31.325Z,100347.25
2022-08-20T02:54:01.022Z,100349.22
2022-08-20T02:56:31.511Z,100349.00
2022-08-20T02:59:03.703Z,100345.03
2022-08-20T03:01:33.657Z,100351.50
2022-08-20T03:04:03.688Z,100353.97
2022-08-20T03:06:33.263Z,100346.75
2022-08-20T03:09:05.377Z,100345.09
2022-08-20T03:11:35.079Z,100336.44
2022-08-20T03:14:07.842Z,100337.25
2022-08-20T03:16:37.447Z,100332.63
2022-08-20T03:19:08.611Z,100335.97
2022-08-20T03:21:38.173Z,100343.38
2022-08-20T03:24:08.000Z,100351.25
2022-08-20T03:26:37.593Z,100353.19
2022-08-20T03:29:09.775Z,100361.50
2022-08-20T03:31:39.385Z,100359.03
2022-08-20T03:34:08.970Z,100365.81
2022-08-20T03:36:38.568Z,100361.50
2022-08-20T03:39:11.763Z,100354.44
2022-08-20T03:41:41.368Z,100349.53
2022-08-20T03:44:13.554Z,100350.06
2022-08-20T03:46:43.203Z,100350.38
2022-08-20T03:49:12.832Z,100346.84
2022-08-20T03:51:51.494Z,100342.25
2022-08-20T03:54:31.929Z,100349.03
2022-08-20T03:57:02.963Z,100343.03
2022-08-20T03:59:44.650Z,100342.25
2022-08-20T04:02:14.319Z,100350.88
2022-08-20T04:04:43.936Z,100352.03
2022-08-20T04:07:13.982Z,100348.47
2022-08-20T04:09:44.200Z,100356.19
2022-08-20T04:12:15.203Z,100350.09
2022-08-20T04:14:47.374Z,100352.03
2022-08-20T04:17:16.969Z,100356.09
2022-08-20T04:19:46.691Z,100362.59
2022-08-20T04:22:16.566Z,100365.31
2022-08-20T04:24:46.265Z,100361.56
2022-08-20T04:27:15.847Z,100362.34
2022-08-20T04:29:48.034Z,100364.19
2022-08-20T04:32:17.930Z,100362.31
2022-08-20T04:34:47.619Z,100365.72
2022-08-20T04:37:17.567Z,100370.03
2022-08-20T04:40:07.476Z,100360.56
2022-08-20T04:42:36.316Z,100368.59
2022-08-20T04:45:10.114Z,100370.19
2022-08-20T04:47:39.667Z,100367.44
2022-08-20T04:50:11.798Z,100377.44
2022-08-20T04:52:44.167Z,100377.38
2022-08-20T04:55:13.869Z,100376.25
2022-08-20T04:57:43.428Z,100368.66
2022-08-20T05:00:17.919Z,100376.84
2022-08-20T05:02:47.484Z,100376.56
2022-08-20T05:05:17.097Z,100376.53
2022-08-20T05:07:47.461Z,100378.94
2022-08-20T05:10:18.038Z,100376.84
2022-08-20T05:12:57.031Z,100379.78
2022-08-20T05:15:29.525Z,100381.97
2022-08-20T05:18:00.716Z,100383.84
2022-08-20T05:20:31.796Z,100378.22
2022-08-20T05:23:01.257Z,100382.00
2022-08-20T05:25:32.040Z,100379.81
2022-08-20T05:28:01.722Z,100381.72
2022-08-20T05:30:34.099Z,100386.31
2022-08-20T05:33:03.926Z,100392.06
2022-08-20T05:35:34.506Z,100388.25
2022-08-20T05:38:04.145Z,100389.84
2022-08-20T05:40:33.772Z,100398.38
2022-08-20T05:43:04.865Z,100396.22
2022-08-20T05:45:37.652Z,100400.47
2022-08-20T05:48:08.156Z,100399.63
2022-08-20T05:50:38.247Z,100406.06
2022-08-20T05:53:07.889Z,100409.59
2022-08-20T05:55:37.738Z,100413.97
2022-08-20T05:58:09.033Z,100415.63
2022-08-20T06:00:41.289Z,100409.50
2022-08-20T06:03:23.370Z,100413.59
2022-08-20T06:05:52.993Z,100421.28
2022-08-20T06:08:22.909Z,100422.16
2022-08-20T06:10:52.517Z,100416.88
2022-08-20T06:13:22.089Z,100423.59
2022-08-20T06:15:54.313Z,100427.06
2022-08-20T06:18:27.883Z,100428.97
2022-08-20T06:20:58.458Z,100423.53
2022-08-20T06:23:28.049Z,100423.81
2022-08-20T06:26:24.931Z,100423.28
2022-08-20T06:29:00.404Z,100423.00
2022-08-20T06:31:32.805Z,100415.53
2022-08-20T06:34:02.443Z,100422.03
2022-08-20T06:36:32.049Z,100420.56
2022-08-20T06:39:01.663Z,100419.66
2022-08-20T06:41:36.250Z,100413.34
2022-08-20T06:44:07.583Z,100423.22
2022-08-20T06:46:40.205Z,100412.38
2022-08-20T06:49:10.023Z,100407.31
2022-08-20T06:51:41.287Z,100413.91
2022-08-20T06:54:11.165Z,100408.94
2022-08-20T06:56:40.847Z,100410.75
2022-08-20T06:59:10.402Z,100412.66
2022-08-20T07:01:42.637Z,100415.94
2022-08-20T07:04:12.231Z,100415.22
2022-08-20T07:06:41.872Z,100424.09
2022-08-20T07:09:11.465Z,100425.75
2022-08-20T07:11:41.483Z,100425.91
2022-08-20T07:14:11.941Z,100431.88
2022-08-20T07:16:44.177Z,100429.53
2022-08-20T07:19:13.836Z,100429.91
2022-08-20T07:21:43.434Z,100433.53
2022-08-20T07:24:13.047Z,100427.22
2022-08-20T07:26:42.635Z,100427.78
2022-08-20T07:29:12.175Z,100427.41
2022-08-20T07:31:56.776Z,100431.88
2022-08-20T07:34:26.441Z,100433.28
2022-08-20T07:36:55.996Z,100432.97
2022-08-20T07:39:25.783Z,100437.00
2022-08-20T07:42:03.382Z,100434.13
2022-08-20T07:44:33.097Z,100438.06
2022-08-20T07:47:06.585Z,100441.56
2022-08-20T07:49:39.788Z,100445.88
2022-08-20T07:52:09.725Z,100439.34
2022-08-20T07:54:40.016Z,100437.34
2022-08-20T07:57:12.191Z,100442.94
2022-08-20T07:59:41.790Z,100434.44
2022-08-20T08:02:13.921Z,100436.53
2022-08-20T08:04:43.539Z,100439.91
2022-08-20T08:07:13.099Z,100437.31
2022-08-20T08:09:44.007Z,100441.28
2022-08-20T08:12:13.476Z,100438.72
2022-08-20T08:14:43.417Z,100436.09
2022-08-20T08:17:15.613Z,100438.31
2022-08-20T08:19:49.090Z,100434.56
2022-08-20T08:22:20.974Z,100441.06
2022-08-20T08:24:56.741Z,100434.72
2022-08-20T08:27:27.047Z,100425.81
2022-08-20T08:29:56.656Z,100425.34
2022-08-20T08:32:28.995Z,100429.53
2022-08-20T08:34:58.517Z,100434.22
2022-08-20T08:37:30.851Z,100429.97
2022-08-20T08:40:01.514Z,100428.22
2022-08-20T08:42:44.093Z,100431.50
2022-08-20T08:45:13.671Z,100439.88
2022-08-20T08:47:45.867Z,100426.97
2022-08-20T08:50:49.944Z,100439.44
2022-08-20T08:53:19.466Z,100433.38
2022-08-20T08:55:49.152Z,100437.25
2022-08-20T08:58:18.714Z,100443.56
2022-08-20T09:00:56.521Z,100440.03
2022-08-20T09:03:36.625Z,100435.03
2022-08-20T09:06:07.495Z,100428.59
2022-08-20T09:08:41.845Z,100432.56
2022-08-20T09:11:11.445Z,100426.44
2022-08-20T09:13:43.144Z,100429.66
2022-08-20T09:16:12.744Z,100431.72
2022-08-20T09:18:44.928Z,100434.38
2022-08-20T09:21:14.700Z,100424.75
2022-08-20T09:23:44.302Z,100428.28
2022-08-20T09:26:13.912Z,100429.88
2022-08-20T09:28:43.460Z,100427.13
2022-08-20T09:31:13.081Z,100428.63
2022-08-20T09:33:48.225Z,100432.66
2022-08-20T09:36:31.977Z,100424.34
2022-08-20T09:39:02.895Z,100426.53
2022-08-20T09:41:33.882Z,100423.84
2022-08-20T09:44:04.320Z,100420.53
2022-08-20T09:46:33.932Z,100419.38
2022-08-20T09:49:06.088Z,100425.75
2022-08-20T09:51:38.544Z,100423.25
2022-08-20T09:54:08.335Z,100418.63
2022-08-20T09:56:38.522Z,100415.19
2022-08-20T09:59:08.104Z,100399.84
2022-08-20T10:01:37.689Z,100404.25
2022-08-20T10:04:09.907Z,100411.31
2022-08-20T10:06:41.749Z,100416.72
2022-08-20T10:09:11.332Z,100405.88
2022-08-20T10:11:40.973Z,100395.88
2022-08-20T10:14:10.842Z,100404.25
2022-08-20T10:16:40.417Z,100403.59
2022-08-20T10:19:12.639Z,100398.91
2022-08-20T10:21:42.251Z,100392.81
2022-08-20T10:24:12.794Z,100403.53
2022-08-20T10:26:42.391Z,100384.00
2022-08-20T10:29:11.999Z,100390.50
2022-08-20T10:31:41.626Z,100397.19
2022-08-20T10:34:13.792Z,100393.31
2022-08-20T10:36:44.767Z,100395.69
2022-08-20T10:39:14.459Z,100396.66
2022-08-20T10:41:44.021Z,100388.19
2022-08-20T10:44:13.565Z,100387.34
2022-08-20T10:46:43.120Z,100386.72
2022-08-20T10:49:15.281Z,100382.25
2022-08-20T10:51:44.850Z,100383.69
2022-08-20T10:54:17.179Z,100384.72
2022-08-20T10:56:46.764Z,100378.78
2022-08-20T10:59:16.339Z,100388.75
2022-08-20T11:01:45.971Z,100387.06
2022-08-20T11:04:18.268Z,100376.66
2022-08-20T11:06:47.813Z,100381.59
2022-08-20T11:09:17.407Z,100373.38
2022-08-20T11:11:47.012Z,100372.63
2022-08-20T11:14:16.722Z,100379.56
2022-08-20T11:16:46.274Z,100375.41
2022-08-20T11:19:18.437Z,100380.56
2022-08-20T11:21:48.036Z,100376.81
2022-08-20T11:24:18.993Z,100387.28
2022-08-20T11:26:48.991Z,100383.56
2022-08-20T11:29:18.625Z,100382.88
2022-08-20T11:31:48.185Z,100379.13
2022-08-20T11:34:20.392Z,100384.19
2022-08-20T11:36:49.975Z,100393.28
2022-08-20T11:39:19.569Z,100380.81
2022-08-20T11:41:49.334Z,100371.56
2022-08-20T11:44:24.925Z,100375.03
2022-08-20T11:46:54.461Z,100372.72
2022-08-20T11:49:26.748Z,100371.19
2022-08-20T11:51:56.441Z,100374.03
2022-08-20T11:54:28.923Z,100377.66
2022-08-20T11:56:59.617Z,100374.97
2022-08-20T11:59:29.222Z,100376.34
2022-08-20T12:02:02.692Z,100382.63
2022-08-20T12:04:35.525Z,100379.56
2022-08-20T12:07:12.831Z,100378.41
2022-08-20T12:09:51.107Z,100377.81
2022-08-20T12:12:22.325Z,100376.22
2022-08-20T12:14:51.937Z,100372.72
2022-08-20T12:17:24.115Z,100374.97
2022-08-20T12:19:57.220Z,100375.09
2022-08-20T12:22:26.952Z,100383.56
2022-08-20T12:24:56.705Z,100378.31
2022-08-20T12:27:27.156Z,100379.09
2022-08-20T12:29:57.827Z,100373.63
2022-08-20T12:32:30.630Z,100375.47
2022-08-20T12:35:02.851Z,100372.38
2022-08-20T12:37:32.966Z,100364.06
2022-08-20T12:40:03.394Z,100371.81
2022-08-20T12:42:33.208Z,100369.66
2022-08-20T12:45:02.913Z,100368.59
2022-08-20T12:47:33.209Z,100366.41
2022-08-20T12:50:06.877Z,100360.03
2022-08-20T12:52:36.617Z,100357.50
2022-08-20T12:55:06.871Z,100357.63
2022-08-20T12:57:37.963Z,100363.69
2022-08-20T13:00:10.838Z,100356.19
2022-08-20T13:02:41.303Z,100364.03
2022-08-20T13:05:14.204Z,100365.28
2022-08-20T13:07:44.070Z,100363.56
2022-08-20T13:10:15.528Z,100364.00
2022-08-20T13:12:45.202Z,100361.50
2022-08-20T13:15:15.199Z,100366.44
2022-08-20T13:17:44.937Z,100352.72
2022-08-20T13:20:18.723Z,100357.16
2022-08-20T13:22:48.318Z,100361.28
2022-08-20T13:25:17.900Z,100355.69
2022-08-20T13:27:47.560Z,100352.06
2022-08-20T13:30:19.852Z,100355.94
2022-08-20T13:32:49.530Z,100348.63
2022-08-20T13:35:22.229Z,100338.31
2022-08-20T13:37:52.091Z,100345.72
2022-08-20T13:40:21.882Z,100349.03
2022-08-20T13:42:51.493Z,100341.34
2022-08-20T13:45:21.183Z,100342.53
2022-08-20T13:47:53.695Z,100341.75
2022-08-20T13:50:27.470Z,100341.69
2022-08-20T13:52:57.363Z,100342.00
2022-08-20T13:55:28.227Z,100336.19
2022-08-20T13:57:58.906Z,100337.78
2022-08-20T14:00:31.849Z,100338.94
2022-08-20T14:03:02.051Z,100336.03
2022-08-20T14:05:34.414Z,100336.63
2022-08-20T14:08:08.648Z,100332.06
2022-08-20T14:10:38.457Z,100336.28
2022-08-20T14:13:11.231Z,100342.47
2022-08-20T14:15:44.361Z,100326.25
2022-08-20T14:18:14.448Z,100341.97
2022-08-20T14:20:47.052Z,100346.31
2022-08-20T14:23:16.633Z,100349.06
2022-08-20T14:25:47.904Z,100338.84
2022-08-20T14:28:18.914Z,100342.97
2022-08-20T14:30:52.710Z,100356.13
2022-08-20T14:33:23.408Z,100354.19
2022-08-20T14:35:55.847Z,100358.19
2022-08-20T14:38:25.462Z,100357.28
2022-08-20T14:40:55.627Z,100355.03
2022-08-20T14:43:25.158Z,100349.63
2022-08-20T14:45:55.020Z,100350.53
2022-08-20T14:48:25.597Z,100360.59
2022-08-20T14:50:59.575Z,100355.81
2022-08-20T14:53:29.227Z,100364.38
2022-08-20T14:55:58.813Z,100351.13
2022-08-20T14:58:28.759Z,100357.97
2022-08-20T15:00:58.395Z,100358.81
2022-08-20T15:03:30.617Z,100363.13
2022-08-20T15:06:03.236Z,100369.28
2022-08-20T15:08:32.780Z,100374.63
2022-08-20T15:11:02.537Z,100369.75
2022-08-20T15:13:32.096Z,100372.03
2022-08-20T15:16:02.001Z,100368.50
2022-08-20T15:18:32.086Z,100363.59
2022-08-20T15:21:04.255Z,100361.28
2022-08-20T15:23:39.881Z,100360.34
2022-08-20T15:26:09.744Z,100367.22
2022-08-20T15:28:39.326Z,100364.25
2022-08-20T15:31:11.630Z,100364.25
2022-08-20T15:33:41.276Z,100374.19
2022-08-20T15:36:13.827Z,100364.94
2022-08-20T15:38:43.438Z,100363.59
2022-08-20T15:41:13.114Z,100363.56
2022-08-20T15:43:42.726Z,100360.72
2022-08-20T15:46:12.299Z,100357.56
2022-08-20T15:48:42.819Z,100359.22
2022-08-20T15:51:24.241Z,100361.84
2022-08-20T15:53:58.323Z,100360.41
2022-08-20T15:56:35.294Z,100363.31
2022-08-20T15:59:11.952Z,100361.22
2022-08-20T16:01:47.874Z,100359.09
2022-08-20T16:04:53.092Z,100356.91
2022-08-20T16:07:27.691Z,100361.63
2022-08-20T16:10:04.240Z,100372.00
2022-08-20T16:12:35.919Z,100351.13
2022-08-20T16:15:10.747Z,100371.41
2022-08-20T16:17:42.454Z,100367.25
2022-08-20T16:20:14.449Z,100367.50
2022-08-20T16:22:47.904Z,100376.53
2022-08-20T16:25:17.852Z,100376.44
2022-08-20T16:27:52.298Z,100369.47
2022-08-20T16:30:23.510Z,100369.63
2022-08-20T16:32:56.179Z,100380.75
2022-08-20T16:35:30.275Z,100370.41
2022-08-20T16:38:06.849Z,100377.66
2022-08-20T16:40:38.381Z,100378.59
2022-08-20T16:43:08.786Z,100377.44
2022-08-20T16:45:43.497Z,100391.41
2022-08-20T16:48:15.292Z,100383.72
2022-08-20T16:50:50.865Z,100383.88
2022-08-20T16:53:24.180Z,100384.38
2022-08-20T16:55:53.781Z,100379.94
2022-08-20T16:58:23.405Z,100374.31
2022-08-20T17:00:53.950Z,100387.31
2022-08-20T17:03:33.312Z,100384.44
2022-08-20T17:06:18.481Z,100385.88
2022-08-20T17:08:52.691Z,100387.94
2022-08-20T17:11:27.192Z,100391.00
2022-08-20T17:14:10.346Z,100400.91
2022-08-20T17:16:43.350Z,100402.50
2022-08-20T17:19:17.869Z,100407.13
2022-08-20T17:21:50.172Z,100397.97
2022-08-20T17:24:26.208Z,100396.38
2022-08-20T17:27:00.780Z,100402.97
2022-08-20T17:29:31.727Z,100411.22
2022-08-20T17:32:02.093Z,100404.50
2022-08-20T17:34:33.042Z,100412.47
2022-08-20T17:37:04.745Z,100412.34
2022-08-20T17:39:37.054Z,100412.88
2022-08-20T17:42:08.960Z,100408.84
2022-08-20T17:44:40.485Z,100414.03
2022-08-20T17:47:13.335Z,100411.94
2022-08-20T17:49:54.978Z,100411.47
2022-08-20T17:52:33.971Z,100408.78
2022-08-20T17:55:06.528Z,100414.88
2022-08-20T17:57:38.630Z,100415.13
2022-08-20T18:00:14.078Z,100419.69
2022-08-20T18:02:43.717Z,100421.78
2022-08-20T18:05:17.067Z,100419.56
2022-08-20T18:07:50.827Z,100418.56
2022-08-20T18:10:24.255Z,100411.53
2022-08-20T18:12:57.380Z,100416.41
2022-08-20T18:15:28.578Z,100412.75
2022-08-20T18:18:09.253Z,100419.00
2022-08-20T18:20:57.613Z,100424.53
2022-08-20T18:23:29.140Z,100425.34
2022-08-20T18:26:05.383Z,100426.56
2022-08-20T18:28:38.776Z,100429.06
2022-08-20T18:31:10.481Z,100425.19
2022-08-20T18:33:42.142Z,100427.78
2022-08-20T18:36:13.512Z,100435.31
2022-08-20T18:38:44.632Z,100429.06
2022-08-20T18:41:18.594Z,100436.91
2022-08-20T18:43:48.332Z,100445.69
2022-08-20T18:46:23.731Z,100440.63
2022-08-20T18:48:58.346Z,100444.38
2022-08-20T18:51:32.031Z,100448.78
2022-08-20T18:54:01.635Z,100461.25
2022-08-20T18:56:39.556Z,100457.31
2022-08-20T18:59:12.979Z,100464.94
2022-08-20T19:01:43.214Z,100450.06
2022-08-20T19:04:19.782Z,100462.69
2022-08-20T19:06:55.503Z,100457.75
2022-08-20T19:09:35.750Z,100461.00
2022-08-20T19:12:28.416Z,100463.19
2022-08-20T19:15:03.475Z,100461.00
2022-08-20T19:17:56.317Z,100461.09
2022-08-20T19:20:26.967Z,100461.28
2022-08-20T19:22:57.473Z,100469.50
2022-08-20T19:25:30.251Z,100471.00
2022-08-20T19:28:04.045Z,100476.44
2022-08-20T19:30:36.621Z,100480.34
2022-08-20T19:33:06.435Z,100477.03
2022-08-20T19:35:36.376Z,100483.44
2022-08-20T19:38:06.287Z,100485.84
2022-08-20T19:40:39.309Z,100486.44
2022-08-20T19:43:14.997Z,100485.81
2022-08-20T19:45:47.891Z,100493.06
2022-08-20T19:48:32.099Z,100496.66
2022-08-20T19:51:05.917Z,100500.69
2022-08-20T19:53:36.653Z,100491.59
2022-08-20T19:56:06.779Z,100496.66
2022-08-20T19:58:41.751Z,100499.88
2022-08-20T20:01:13.137Z,100496.66
2022-08-20T20:03:42.751Z,100502.63
2022-08-20T20:06:17.314Z,100502.72
2022-08-20T20:08:48.415Z,100502.16
2022-08-20T20:11:19.981Z,100486.69
2022-08-20T20:13:52.178Z,100497.50
2022-08-20T20:16:23.113Z,100494.59
2022-08-20T20:19:15.569Z,100496.88
2022-08-20T20:21:43.527Z,100500.38
2022-08-20T20:24:12.900Z,100501.84
2022-08-20T20:26:43.760Z,100501.03
2022-08-20T20:29:16.775Z,100502.19
2022-08-20T20:31:51.120Z,100501.25
2022-08-20T20:34:21.766Z,100503.53
2022-08-20T20:36:51.343Z,100510.09
2022-08-20T20:39:30.305Z,100508.84
2022-08-20T20:42:01.750Z,100501.88
2022-08-20T20:44:37.292Z,100504.34
2022-08-20T20:47:08.559Z,100506.03
2022-08-20T20:49:50.152Z,100503.59
2022-08-20T20:52:24.019Z,100499.28
2022-08-20T20:54:53.614Z,100509.56
2022-08-20T20:57:37.940Z,100494.38
2022-08-20T21:00:14.415Z,100491.50
2022-08-20T21:02:44.047Z,100493.75
2022-08-20T21:05:13.955Z,100487.53
2022-08-20T21:07:50.653Z,100486.81
2022-08-20T21:10:21.054Z,100477.94
2022-08-20T21:12:53.129Z,100491.03
2022-08-20T21:15:26.512Z,100479.63
2022-08-20T21:17:56.189Z,100490.50
2022-08-20T21:20:25.760Z,100493.59
2022-08-20T21:22:57.288Z,100491.22
2022-08-20T21:25:27.139Z,100489.63
2022-08-20T21:27:56.727Z,100497.72
2022-08-20T21:30:28.972Z,100502.88
2022-08-20T21:32:58.724Z,100500.94
2022-08-20T21:35:28.500Z,100496.09
2022-08-20T21:37:58.103Z,100496.94
2022-08-20T21:40:28.355Z,100497.16
2022-08-20T21:42:58.600Z,100497.69
2022-08-20T21:45:30.851Z,100504.19
2022-08-20T21:48:01.296Z,100503.38
2022-08-20T21:50:30.855Z,100505.25
2022-08-20T21:53:00.541Z,100510.75
2022-08-20T21:55:35.027Z,100511.28
2022-08-20T21:58:07.303Z,100509.34
2022-08-20T22:00:55.445Z,100510.78
2022-08-20T22:03:25.857Z,100514.13
2022-08-20T22:05:55.485Z,100507.19
2022-08-20T22:08:28.504Z,100512.59
2022-08-20T22:10:58.423Z,100510.41
2022-08-20T22:13:31.410Z,100512.84
2022-08-20T22:16:03.959Z,100514.69
2022-08-20T22:18:33.661Z,100509.06
2022-08-20T22:21:03.211Z,100510.16
2022-08-20T22:23:33.043Z,100511.50
2022-08-20T22:26:02.647Z,100508.03
2022-08-20T22:28:32.575Z,100499.94
2022-08-20T22:31:04.874Z,100504.03
2022-08-20T22:33:34.624Z,100507.06
2022-08-20T22:36:04.426Z,100507.34
2022-08-20T22:38:34.001Z,100507.91
2022-08-20T22:41:09.000Z,100514.41
2022-08-20T22:43:46.182Z,100517.72
2022-08-20T22:46:29.976Z,100522.06
2022-08-20T22:48:59.570Z,100512.63
2022-08-20T22:51:30.592Z,100522.38
2022-08-20T22:54:00.725Z,100516.44
2022-08-20T22:56:30.303Z,100523.47
2022-08-20T22:59:00.489Z,100520.78
2022-08-20T23:01:33.215Z,100530.00
2022-08-20T23:04:06.639Z,100527.03
2022-08-20T23:06:36.191Z,100523.78
2022-08-20T23:09:06.012Z,100530.84
2022-08-20T23:11:35.561Z,100532.44
2022-08-20T23:14:05.129Z,100525.72
2022-08-20T23:16:44.747Z,100526.25
2022-08-20T23:19:16.099Z,100528.97
2022-08-20T23:21:45.646Z,100531.13
2022-08-20T23:24:15.220Z,100533.28
2022-08-20T23:26:52.588Z,100534.38
2022-08-20T23:29:25.903Z,100535.44
2022-08-20T23:31:58.667Z,100527.09
2022-08-20T23:34:28.481Z,100526.81
2022-08-20T23:36:58.524Z,100526.28
2022-08-20T23:39:28.611Z,100524.94
2022-08-20T23:41:58.199Z,100533.81
2022-08-20T23:44:27.798Z,100536.25
2022-08-20T23:47:01.382Z,100536.00
2022-08-20T23:49:31.038Z,100532.47
2022-08-20T23:52:00.822Z,100536.53
2022-08-20T23:54:30.911Z,100534.66
2022-08-20T23:57:00.459Z,100530.06
2022-08-20T23:59:30.024Z,100530.06
